sensor_id;sensor_type;location;lat;lon;timestamp;pressure;altitude;pressure_sealevel;temperature;humidity
15817;BME280;8009;50.070;8.232;2023-02-11T01:58:37;101964.50;;;3.40;72.80
15817;BME280;8009;50.070;8.232;2023-02-11T04:57:31;101880.00;;;3.34;73.41
15817;BME280;8009;50.070;8.232;2023-02-11T04:59:59;101872.91;;;3.33;73.25
15817;BME280;8009;50.070;8.232;2023-02-11T05:02:28;101875.47;;;3.41;73.04
15817;BME280;8009;50.070;8.232;2023-02-11T05:04:56;101881.97;;;3.25;73.91
15817;BME280;8009;50.070;8.232;2023-02-11T05:07:26;101880.88;;;3.36;73.05
15817;BME280;8009;50.070;8.232;2023-02-11T05:09:55;101874.44;;;3.50;72.92
15817;BME280;8009;50.070;8.232;2023-02-11T05:12:24;101859.34;;;3.46;72.91
15817;BME280;8009;50.070;8.232;2023-02-11T05:14:57;101838.88;;;3.46;73.01
15817;BME280;8009;50.070;8.232;2023-02-11T05:17:25;101832.28;;;3.65;72.26
15817;BME280;8009;50.070;8.232;2023-02-11T07:04:53;101865.47;;;2.98;74.84
15817;BME280;8009;50.070;8.232;2023-02-11T07:14:06;101869.50;;;3.25;73.88
15817;BME280;8009;50.070;8.232;2023-02-11T07:16:38;101860.69;;;3.18;73.87
15817;BME280;8009;50.070;8.232;2023-02-11T07:22:45;101866.00;;;3.20;73.73
15817;BME280;8009;50.070;8.232;2023-02-11T07:25:13;101867.59;;;2.72;75.67
15817;BME280;8009;50.070;8.232;2023-02-11T07:27:42;101868.91;;;3.05;74.96
15817;BME280;8009;50.070;8.232;2023-02-11T07:30:11;101879.28;;;3.25;74.02
15817;BME280;8009;50.070;8.232;2023-02-11T07:32:40;101886.09;;;3.42;73.49
15817;BME280;8009;50.070;8.232;2023-02-11T07:35:08;101879.84;;;3.45;73.57
15817;BME280;8009;50.070;8.232;2023-02-11T07:37:37;101876.09;;;3.57;73.57
15817;BME280;8009;50.070;8.232;2023-02-11T07:40:09;101874.06;;;3.70;72.77
15817;BME280;8009;50.070;8.232;2023-02-11T07:42:37;101876.56;;;3.80;72.82
15817;BME280;8009;50.070;8.232;2023-02-11T07:45:08;101878.53;;;3.71;73.05
15817;BME280;8009;50.070;8.232;2023-02-11T07:47:39;101882.03;;;3.74;73.08
15817;BME280;8009;50.070;8.232;2023-02-11T07:50:07;101881.78;;;3.88;73.00
15817;BME280;8009;50.070;8.232;2023-02-11T07:52:36;101878.31;;;3.81;72.60
15817;BME280;8009;50.070;8.232;2023-02-11T07:55:07;101871.09;;;3.88;72.53
15817;BME280;8009;50.070;8.232;2023-02-11T07:57:36;101871.19;;;3.83;72.67
15817;BME280;8009;50.070;8.232;2023-02-11T08:00:06;101881.06;;;3.78;72.74
15817;BME280;8009;50.070;8.232;2023-02-11T08:02:35;101887.34;;;3.76;72.76
15817;BME280;8009;50.070;8.232;2023-02-11T08:05:03;101887.25;;;3.82;72.66
15817;BME280;8009;50.070;8.232;2023-02-11T08:07:32;101897.63;;;3.99;71.85
15817;BME280;8009;50.070;8.232;2023-02-11T08:10:02;101896.84;;;3.92;72.29
15817;BME280;8009;50.070;8.232;2023-02-11T08:12:33;101897.94;;;3.82;72.71
15817;BME280;8009;50.070;8.232;2023-02-11T08:15:04;101896.50;;;3.61;73.73
15817;BME280;8009;50.070;8.232;2023-02-11T08:17:33;101899.22;;;3.58;73.95
15817;BME280;8009;50.070;8.232;2023-02-11T08:20:02;101889.16;;;3.74;73.70
15817;BME280;8009;50.070;8.232;2023-02-11T08:22:31;101898.75;;;3.85;73.15
15817;BME280;8009;50.070;8.232;2023-02-11T08:25:00;101898.84;;;4.27;72.34
15817;BME280;8009;50.070;8.232;2023-02-11T08:27:28;101898.25;;;4.13;72.29
15817;BME280;8009;50.070;8.232;2023-02-11T08:29:59;101907.69;;;4.31;71.28
15817;BME280;8009;50.070;8.232;2023-02-11T08:32:27;101915.69;;;3.86;73.35
15817;BME280;8009;50.070;8.232;2023-02-11T08:34:56;101919.09;;;3.92;73.16
15817;BME280;8009;50.070;8.232;2023-02-11T08:37:25;101897.88;;;4.33;71.71
15817;BME280;8009;50.070;8.232;2023-02-11T08:39:53;101897.91;;;4.31;71.88
15817;BME280;8009;50.070;8.232;2023-02-11T08:42:22;101906.66;;;4.39;71.34
15817;BME280;8009;50.070;8.232;2023-02-11T08:44:50;101906.34;;;4.55;70.99
15817;BME280;8009;50.070;8.232;2023-02-11T08:47:21;101910.88;;;4.50;71.39
15817;BME280;8009;50.070;8.232;2023-02-11T08:49:49;101901.56;;;4.71;70.58
15817;BME280;8009;50.070;8.232;2023-02-11T08:52:18;101908.44;;;4.82;70.19
15817;BME280;8009;50.070;8.232;2023-02-11T08:54:46;101910.72;;;5.01;69.69
15817;BME280;8009;50.070;8.232;2023-02-11T08:57:15;101919.63;;;5.01;69.64
15817;BME280;8009;50.070;8.232;2023-02-11T08:59:43;101914.72;;;4.80;70.10
15817;BME280;8009;50.070;8.232;2023-02-11T09:02:12;101927.22;;;4.79;70.40
15817;BME280;8009;50.070;8.232;2023-02-11T09:04:43;101918.94;;;4.92;69.97
15817;BME280;8009;50.070;8.232;2023-02-11T09:07:11;101917.88;;;5.00;69.55
15817;BME280;8009;50.070;8.232;2023-02-11T09:09:40;101916.13;;;4.98;69.75
15817;BME280;8009;50.070;8.232;2023-02-11T09:12:08;101910.38;;;5.14;68.90
15817;BME280;8009;50.070;8.232;2023-02-11T09:14:44;101909.03;;;5.34;68.69
15817;BME280;8009;50.070;8.232;2023-02-11T09:20:26;101913.34;;;5.41;68.32
15817;BME280;8009;50.070;8.232;2023-02-11T09:22:56;101914.63;;;5.25;69.29
15817;BME280;8009;50.070;8.232;2023-02-11T09:48:19;101950.31;;;5.64;68.62
15817;BME280;8009;50.070;8.232;2023-02-11T09:51:01;101947.00;;;5.53;68.71
15817;BME280;8009;50.070;8.232;2023-02-11T09:56:31;101949.16;;;5.74;68.33
15817;BME280;8009;50.070;8.232;2023-02-11T10:02:03;101957.34;;;6.05;67.32
15817;BME280;8009;50.070;8.232;2023-02-11T10:07:43;101959.28;;;6.00;67.71
15817;BME280;8009;50.070;8.232;2023-02-11T10:10:22;101966.38;;;6.03;67.31
15817;BME280;8009;50.070;8.232;2023-02-11T10:13:27;101968.78;;;5.76;68.47
15817;BME280;8009;50.070;8.232;2023-02-11T10:16:12;101969.00;;;6.04;67.67
15817;BME280;8009;50.070;8.232;2023-02-11T10:21:56;101970.44;;;6.18;67.46
15817;BME280;8009;50.070;8.232;2023-02-11T10:24:28;101965.66;;;6.30;66.76
15817;BME280;8009;50.070;8.232;2023-02-11T10:26:57;101964.72;;;6.31;67.09
15817;BME280;8009;50.070;8.232;2023-02-11T10:29:33;101963.78;;;6.32;66.90
15817;BME280;8009;50.070;8.232;2023-02-11T10:32:05;101959.28;;;6.33;67.38
15817;BME280;8009;50.070;8.232;2023-02-11T10:34:40;101959.66;;;6.52;66.65
15817;BME280;8009;50.070;8.232;2023-02-11T10:37:12;101961.19;;;6.29;67.95
15817;BME280;8009;50.070;8.232;2023-02-11T10:39:41;101958.00;;;6.15;67.94
15817;BME280;8009;50.070;8.232;2023-02-11T10:42:14;101968.94;;;6.06;68.32
15817;BME280;8009;50.070;8.232;2023-02-11T10:44:58;101972.63;;;6.36;67.71
15817;BME280;8009;50.070;8.232;2023-02-11T10:47:31;101972.41;;;6.45;68.03
15817;BME280;8009;50.070;8.232;2023-02-11T10:50:20;101956.31;;;6.45;67.92
15817;BME280;8009;50.070;8.232;2023-02-11T10:52:51;101953.41;;;6.53;67.57
15817;BME280;8009;50.070;8.232;2023-02-11T10:55:23;101954.25;;;6.22;69.17
15817;BME280;8009;50.070;8.232;2023-02-11T10:57:55;101940.91;;;6.19;69.38
15817;BME280;8009;50.070;8.232;2023-02-11T11:00:32;101937.34;;;6.19;69.42
15817;BME280;8009;50.070;8.232;2023-02-11T11:03:04;101932.72;;;6.24;69.46
15817;BME280;8009;50.070;8.232;2023-02-11T11:05:36;101932.94;;;6.49;68.60
15817;BME280;8009;50.070;8.232;2023-02-11T11:08:14;101926.81;;;6.75;67.60
15817;BME280;8009;50.070;8.232;2023-02-11T11:10:45;101927.72;;;6.75;68.05
15817;BME280;8009;50.070;8.232;2023-02-11T11:13:25;101933.09;;;6.74;68.24
15817;BME280;8009;50.070;8.232;2023-02-11T11:16:19;101928.09;;;6.62;68.76
15817;BME280;8009;50.070;8.232;2023-02-11T11:18:49;101920.97;;;6.61;69.47
15817;BME280;8009;50.070;8.232;2023-02-11T11:21:21;101928.81;;;6.98;68.32
15817;BME280;8009;50.070;8.232;2023-02-11T11:23:58;101915.25;;;6.73;68.88
15817;BME280;8009;50.070;8.232;2023-02-11T11:26:42;101909.50;;;6.85;68.95
15817;BME280;8009;50.070;8.232;2023-02-11T11:29:16;101915.47;;;7.24;67.28
15817;BME280;8009;50.070;8.232;2023-02-11T11:31:48;101919.88;;;7.27;67.60
15817;BME280;8009;50.070;8.232;2023-02-11T11:34:26;101921.94;;;7.17;67.99
15817;BME280;8009;50.070;8.232;2023-02-11T11:36:56;101924.22;;;7.01;68.42
15817;BME280;8009;50.070;8.232;2023-02-11T11:39:29;101927.00;;;7.28;67.56
15817;BME280;8009;50.070;8.232;2023-02-11T11:41:59;101927.00;;;7.56;67.05
15817;BME280;8009;50.070;8.232;2023-02-11T11:44:37;101927.44;;;7.42;67.20
15817;BME280;8009;50.070;8.232;2023-02-11T11:47:23;101928.31;;;7.43;67.29
15817;BME280;8009;50.070;8.232;2023-02-11T11:50:10;101929.72;;;7.54;67.31
15817;BME280;8009;50.070;8.232;2023-02-11T11:52:53;101927.22;;;7.20;68.19
15817;BME280;8009;50.070;8.232;2023-02-11T11:55:34;101924.84;;;7.39;68.07
15817;BME280;8009;50.070;8.232;2023-02-11T11:58:12;101919.03;;;7.25;68.84
15817;BME280;8009;50.070;8.232;2023-02-11T12:00:51;101914.13;;;7.66;67.58
15817;BME280;8009;50.070;8.232;2023-02-11T12:03:34;101912.84;;;7.77;67.13
15817;BME280;8009;50.070;8.232;2023-02-11T12:06:23;101911.16;;;7.75;67.46
15817;BME280;8009;50.070;8.232;2023-02-11T12:09:01;101916.38;;;7.51;67.86
15817;BME280;8009;50.070;8.232;2023-02-11T12:11:52;101909.38;;;7.74;67.67
15817;BME280;8009;50.070;8.232;2023-02-11T12:14:32;101910.13;;;7.79;67.58
15817;BME280;8009;50.070;8.232;2023-02-11T12:17:18;101914.63;;;8.03;66.74
15817;BME280;8009;50.070;8.232;2023-02-11T12:19:53;101912.84;;;7.77;67.54
15817;BME280;8009;50.070;8.232;2023-02-11T12:22:35;101917.16;;;7.83;67.77
15817;BME280;8009;50.070;8.232;2023-02-11T12:25:22;101908.59;;;7.97;67.30
15817;BME280;8009;50.070;8.232;2023-02-11T12:28:02;101919.22;;;8.01;67.29
15817;BME280;8009;50.070;8.232;2023-02-11T12:30:57;101912.63;;;7.84;67.79
15817;BME280;8009;50.070;8.232;2023-02-11T12:33:48;101912.22;;;7.96;67.80
15817;BME280;8009;50.070;8.232;2023-02-11T12:36:32;101904.22;;;7.94;67.44
15817;BME280;8009;50.070;8.232;2023-02-11T12:39:10;101902.31;;;7.71;68.74
15817;BME280;8009;50.070;8.232;2023-02-11T12:41:51;101889.97;;;7.91;68.61
15817;BME280;8009;50.070;8.232;2023-02-11T12:44:49;101896.50;;;8.09;68.39
15817;BME280;8009;50.070;8.232;2023-02-11T12:47:28;101897.88;;;7.95;69.08
15817;BME280;8009;50.070;8.232;2023-02-11T12:50:09;101893.28;;;8.24;67.86
15817;BME280;8009;50.070;8.232;2023-02-11T12:52:53;101893.44;;;8.19;68.42
15817;BME280;8009;50.070;8.232;2023-02-11T12:55:29;101894.59;;;8.12;68.07
15817;BME280;8009;50.070;8.232;2023-02-11T12:58:01;101895.25;;;7.94;69.11
15817;BME280;8009;50.070;8.232;2023-02-11T13:00:39;101891.28;;;7.79;69.57
15817;BME280;8009;50.070;8.232;2023-02-11T13:03:12;101893.44;;;7.94;69.52
15817;BME280;8009;50.070;8.232;2023-02-11T13:05:45;101888.44;;;8.09;69.18
15817;BME280;8009;50.070;8.232;2023-02-11T13:08:19;101895.03;;;8.00;69.44
15817;BME280;8009;50.070;8.232;2023-02-11T13:10:52;101889.78;;;8.22;68.93
15817;BME280;8009;50.070;8.232;2023-02-11T13:13:24;101879.63;;;8.30;68.48
15817;BME280;8009;50.070;8.232;2023-02-11T13:16:00;101876.25;;;8.23;68.64
15817;BME280;8009;50.070;8.232;2023-02-11T13:18:48;101875.66;;;8.15;69.17
15817;BME280;8009;50.070;8.232;2023-02-11T13:21:39;101866.16;;;8.05;69.55
15817;BME280;8009;50.070;8.232;2023-02-11T13:24:36;101866.56;;;7.94;70.31
15817;BME280;8009;50.070;8.232;2023-02-11T13:27:21;101864.06;;;7.88;69.76
15817;BME280;8009;50.070;8.232;2023-02-11T13:30:12;101873.31;;;8.06;69.40
15817;BME280;8009;50.070;8.232;2023-02-11T13:33:05;101864.91;;;8.15;69.10
15817;BME280;8009;50.070;8.232;2023-02-11T13:35:34;101864.09;;;8.13;69.34
15817;BME280;8009;50.070;8.232;2023-02-11T13:38:04;101865.47;;;8.25;68.74
15817;BME280;8009;50.070;8.232;2023-02-11T13:40:35;101863.63;;;8.00;69.63
15817;BME280;8009;50.070;8.232;2023-02-11T13:43:17;101855.28;;;7.83;70.05
15817;BME280;8009;50.070;8.232;2023-02-11T13:45:48;101870.63;;;8.06;69.19
15817;BME280;8009;50.070;8.232;2023-02-11T13:48:22;101869.91;;;8.26;68.63
15817;BME280;8009;50.070;8.232;2023-02-11T13:50:54;101870.84;;;8.25;67.99
15817;BME280;8009;50.070;8.232;2023-02-11T13:53:25;101863.19;;;8.13;68.74
15817;BME280;8009;50.070;8.232;2023-02-11T14:21:35;101858.63;;;8.15;69.14
15817;BME280;8009;50.070;8.232;2023-02-11T14:27:35;101859.47;;;8.17;69.32
15817;BME280;8009;50.070;8.232;2023-02-11T14:30:32;101862.75;;;8.25;69.11
15817;BME280;8009;50.070;8.232;2023-02-11T14:58:12;101879.31;;;8.13;69.33
15817;BME280;8009;50.070;8.232;2023-02-11T15:00:58;101892.41;;;8.23;69.32
15817;BME280;8009;50.070;8.232;2023-02-11T15:10:14;101888.66;;;8.27;68.82
15817;BME280;8009;50.070;8.232;2023-02-11T15:12:44;101883.06;;;8.34;68.83
15817;BME280;8009;50.070;8.232;2023-02-11T15:21:54;101885.44;;;8.43;68.57
15817;BME280;8009;50.070;8.232;2023-02-11T15:24:26;101890.31;;;8.31;68.75
15817;BME280;8009;50.070;8.232;2023-02-11T15:27:00;101893.72;;;8.12;69.63
15817;BME280;8009;50.070;8.232;2023-02-11T15:29:35;101888.66;;;8.27;69.24
15817;BME280;8009;50.070;8.232;2023-02-11T15:32:09;101894.38;;;8.18;69.20
15817;BME280;8009;50.070;8.232;2023-02-11T15:34:39;101901.53;;;8.19;69.12
15817;BME280;8009;50.070;8.232;2023-02-11T15:37:13;101897.66;;;8.28;68.68
15817;BME280;8009;50.070;8.232;2023-02-11T15:42:54;101907.22;;;8.35;68.53
15817;BME280;8009;50.070;8.232;2023-02-11T15:45:25;101910.16;;;8.29;69.24
15817;BME280;8009;50.070;8.232;2023-02-11T15:48:12;101906.69;;;8.25;69.08
15817;BME280;8009;50.070;8.232;2023-02-11T15:50:42;101906.72;;;8.24;69.16
15817;BME280;8009;50.070;8.232;2023-02-11T15:53:33;101913.22;;;8.18;69.27
15817;BME280;8009;50.070;8.232;2023-02-11T15:56:10;101911.09;;;8.28;68.92
15817;BME280;8009;50.070;8.232;2023-02-11T15:58:43;101917.56;;;8.22;69.48
15817;BME280;8009;50.070;8.232;2023-02-11T16:04:22;101927.72;;;8.14;69.42
15817;BME280;8009;50.070;8.232;2023-02-11T16:06:52;101920.19;;;8.24;69.23
15817;BME280;8009;50.070;8.232;2023-02-11T16:09:31;101928.13;;;8.28;68.93
15817;BME280;8009;50.070;8.232;2023-02-11T16:15:30;101929.44;;;8.17;69.61
15817;BME280;8009;50.070;8.232;2023-02-11T16:18:29;101930.69;;;8.06;69.82
15817;BME280;8009;50.070;8.232;2023-02-11T16:24:27;101937.34;;;8.21;69.44
15817;BME280;8009;50.070;8.232;2023-02-11T16:26:59;101934.75;;;8.18;69.46
15817;BME280;8009;50.070;8.232;2023-02-11T16:29:30;101935.03;;;8.11;69.50
15817;BME280;8009;50.070;8.232;2023-02-11T16:38:21;101946.59;;;8.13;69.47
15817;BME280;8009;50.070;8.232;2023-02-11T16:41:20;101940.31;;;8.14;69.71
15817;BME280;8009;50.070;8.232;2023-02-11T16:43:50;101942.41;;;8.04;69.72
15817;BME280;8009;50.070;8.232;2023-02-11T16:46:24;101941.44;;;8.06;69.91
15817;BME280;8009;50.070;8.232;2023-02-11T16:48:52;101945.09;;;8.04;70.14
15817;BME280;8009;50.070;8.232;2023-02-11T16:51:21;101949.50;;;8.06;69.99
15817;BME280;8009;50.070;8.232;2023-02-11T16:53:49;101945.72;;;8.12;69.92
15817;BME280;8009;50.070;8.232;2023-02-11T16:56:21;101953.78;;;8.12;69.68
15817;BME280;8009;50.070;8.232;2023-02-11T16:58:52;101951.22;;;8.09;69.92
15817;BME280;8009;50.070;8.232;2023-02-11T17:01:23;101955.31;;;7.94;70.38
15817;BME280;8009;50.070;8.232;2023-02-11T17:03:52;101958.78;;;7.98;70.31
15817;BME280;8009;50.070;8.232;2023-02-11T17:06:20;101952.72;;;7.91;70.41
15817;BME280;8009;50.070;8.232;2023-02-11T17:08:48;101967.50;;;8.04;70.11
15817;BME280;8009;50.070;8.232;2023-02-11T17:11:19;101964.38;;;7.92;70.62
15817;BME280;8009;50.070;8.232;2023-02-11T17:13:48;101957.78;;;8.00;70.47
15817;BME280;8009;50.070;8.232;2023-02-11T17:16:22;101964.78;;;8.06;69.99
15817;BME280;8009;50.070;8.232;2023-02-11T17:19:12;101964.47;;;8.15;69.80
15817;BME280;8009;50.070;8.232;2023-02-11T17:21:41;101974.44;;;8.12;69.98
15817;BME280;8009;50.070;8.232;2023-02-11T17:24:11;101972.50;;;8.17;69.84
15817;BME280;8009;50.070;8.232;2023-02-11T17:26:43;101977.09;;;8.13;69.90
15817;BME280;8009;50.070;8.232;2023-02-11T17:29:16;101976.97;;;8.16;69.54
15817;BME280;8009;50.070;8.232;2023-02-11T17:31:44;101976.09;;;8.16;69.71
15817;BME280;8009;50.070;8.232;2023-02-11T17:34:13;101982.41;;;8.15;69.97
15817;BME280;8009;50.070;8.232;2023-02-11T17:36:41;101981.44;;;8.17;69.83
15817;BME280;8009;50.070;8.232;2023-02-11T17:39:10;101985.00;;;8.18;69.63
15817;BME280;8009;50.070;8.232;2023-02-11T17:41:39;101974.41;;;8.13;69.72
15817;BME280;8009;50.070;8.232;2023-02-11T17:44:10;101979.78;;;8.13;70.00
15817;BME280;8009;50.070;8.232;2023-02-11T17:46:40;101976.88;;;8.19;69.81
15817;BME280;8009;50.070;8.232;2023-02-11T17:49:09;101981.53;;;8.14;69.83
15817;BME280;8009;50.070;8.232;2023-02-11T17:51:38;101982.63;;;8.09;70.29
15817;BME280;8009;50.070;8.232;2023-02-11T17:54:13;101980.75;;;8.11;70.11
15817;BME280;8009;50.070;8.232;2023-02-11T17:56:43;101989.50;;;8.17;69.89
15817;BME280;8009;50.070;8.232;2023-02-11T17:59:14;101990.28;;;8.21;69.71
15817;BME280;8009;50.070;8.232;2023-02-11T18:01:42;101987.88;;;8.13;69.92
15817;BME280;8009;50.070;8.232;2023-02-11T18:04:14;101984.06;;;8.19;69.99
15817;BME280;8009;50.070;8.232;2023-02-11T18:06:43;101987.03;;;8.11;70.25
15817;BME280;8009;50.070;8.232;2023-02-11T18:09:11;101991.72;;;8.04;70.25
15817;BME280;8009;50.070;8.232;2023-02-11T18:11:40;101997.22;;;8.01;70.64
15817;BME280;8009;50.070;8.232;2023-02-11T18:14:11;101995.03;;;8.13;70.41
15817;BME280;8009;50.070;8.232;2023-02-11T18:16:41;102006.56;;;8.16;70.09
15817;BME280;8009;50.070;8.232;2023-02-11T18:19:11;102006.53;;;8.18;70.08
15817;BME280;8009;50.070;8.232;2023-02-11T18:21:40;101999.22;;;7.95;71.03
15817;BME280;8009;50.070;8.232;2023-02-11T18:24:09;102004.47;;;7.99;70.85
15817;BME280;8009;50.070;8.232;2023-02-11T18:26:37;102004.88;;;8.14;70.59
15817;BME280;8009;50.070;8.232;2023-02-11T18:29:06;101999.59;;;8.11;70.33
15817;BME280;8009;50.070;8.232;2023-02-11T18:31:34;102001.34;;;7.85;71.38
15817;BME280;8009;50.070;8.232;2023-02-11T18:34:07;102011.66;;;7.99;70.80
15817;BME280;8009;50.070;8.232;2023-02-11T18:36:35;102001.50;;;8.07;70.84
15817;BME280;8009;50.070;8.232;2023-02-11T18:39:04;102006.38;;;7.96;70.97
15817;BME280;8009;50.070;8.232;2023-02-11T18:41:32;101987.19;;;8.06;70.77
15817;BME280;8009;50.070;8.232;2023-02-11T18:44:02;101993.78;;;7.96;71.33
15817;BME280;8009;50.070;8.232;2023-02-11T18:46:32;101992.84;;;7.97;71.32
15817;BME280;8009;50.070;8.232;2023-02-11T18:49:01;101999.00;;;8.01;71.23
15817;BME280;8009;50.070;8.232;2023-02-11T18:51:32;101990.81;;;8.05;71.41
15817;BME280;8009;50.070;8.232;2023-02-11T18:54:00;101994.63;;;7.98;71.36
15817;BME280;8009;50.070;8.232;2023-02-11T18:56:31;101984.94;;;7.93;71.73
15817;BME280;8009;50.070;8.232;2023-02-11T18:58:59;101996.56;;;7.93;71.40
15817;BME280;8009;50.070;8.232;2023-02-11T19:01:29;102004.38;;;8.01;71.32
15817;BME280;8009;50.070;8.232;2023-02-11T19:04:00;102003.69;;;7.96;71.28
15817;BME280;8009;50.070;8.232;2023-02-11T19:06:33;102006.72;;;7.85;71.85
15817;BME280;8009;50.070;8.232;2023-02-11T19:09:04;102005.59;;;7.92;71.77
15817;BME280;8009;50.070;8.232;2023-02-11T19:11:35;102008.13;;;7.41;73.23
15817;BME280;8009;50.070;8.232;2023-02-11T19:14:24;102014.16;;;7.77;72.53
15817;BME280;8009;50.070;8.232;2023-02-11T19:16:55;102016.66;;;7.83;72.17
15817;BME280;8009;50.070;8.232;2023-02-11T19:19:28;102020.06;;;7.88;71.92
15817;BME280;8009;50.070;8.232;2023-02-11T19:22:02;102023.78;;;7.56;73.22
15817;BME280;8009;50.070;8.232;2023-02-11T19:24:31;102011.69;;;7.69;72.67
15817;BME280;8009;50.070;8.232;2023-02-11T19:27:01;102015.09;;;7.76;72.58
15817;BME280;8009;50.070;8.232;2023-02-11T19:29:30;102019.06;;;7.63;72.76
15817;BME280;8009;50.070;8.232;2023-02-11T19:31:59;102026.19;;;7.65;72.96
15817;BME280;8009;50.070;8.232;2023-02-11T19:34:28;102036.34;;;7.55;73.15
15817;BME280;8009;50.070;8.232;2023-02-11T19:36:59;102037.31;;;7.53;73.51
15817;BME280;8009;50.070;8.232;2023-02-11T19:39:27;102037.72;;;7.69;72.65
15817;BME280;8009;50.070;8.232;2023-02-11T19:41:55;102041.69;;;7.85;72.39
15817;BME280;8009;50.070;8.232;2023-02-11T19:44:24;102039.69;;;7.64;72.94
15817;BME280;8009;50.070;8.232;2023-02-11T19:46:52;102042.69;;;7.82;72.33
15817;BME280;8009;50.070;8.232;2023-02-11T19:49:20;102049.50;;;7.65;73.05
15817;BME280;8009;50.070;8.232;2023-02-11T19:51:53;102048.31;;;7.73;72.67
15817;BME280;8009;50.070;8.232;2023-02-11T19:54:25;102052.38;;;7.58;73.19
15817;BME280;8009;50.070;8.232;2023-02-11T19:56:54;102050.38;;;7.65;73.09
15817;BME280;8009;50.070;8.232;2023-02-11T19:59:26;102045.38;;;7.82;72.34
15817;BME280;8009;50.070;8.232;2023-02-11T20:01:55;102049.72;;;7.87;72.30
15817;BME280;8009;50.070;8.232;2023-02-11T20:04:26;102044.47;;;7.82;72.26
15817;BME280;8009;50.070;8.232;2023-02-11T20:06:56;102048.94;;;7.83;72.23
15817;BME280;8009;50.070;8.232;2023-02-11T20:09:27;102053.47;;;7.51;73.18
15817;BME280;8009;50.070;8.232;2023-02-11T20:11:56;102054.47;;;7.78;72.31
15817;BME280;8009;50.070;8.232;2023-02-11T20:14:24;102050.84;;;7.79;72.41
15817;BME280;8009;50.070;8.232;2023-02-11T20:16:53;102056.22;;;7.79;72.22
15817;BME280;8009;50.070;8.232;2023-02-11T20:19:21;102061.63;;;7.78;72.17
15817;BME280;8009;50.070;8.232;2023-02-11T20:21:51;102060.50;;;7.85;71.95
15817;BME280;8009;50.070;8.232;2023-02-11T20:24:20;102057.03;;;7.81;72.08
15817;BME280;8009;50.070;8.232;2023-02-11T20:26:52;102065.16;;;7.80;72.04
15817;BME280;8009;50.070;8.232;2023-02-11T20:29:21;102060.59;;;7.82;72.19
15817;BME280;8009;50.070;8.232;2023-02-11T20:31:52;102061.44;;;7.84;71.78
15817;BME280;8009;50.070;8.232;2023-02-11T20:34:20;102060.50;;;7.85;71.88
15817;BME280;8009;50.070;8.232;2023-02-11T20:36:50;102066.09;;;7.79;71.91
15817;BME280;8009;50.070;8.232;2023-02-11T20:39:21;102068.72;;;7.80;71.68
15817;BME280;8009;50.070;8.232;2023-02-11T20:41:53;102069.81;;;7.75;72.14
15817;BME280;8009;50.070;8.232;2023-02-11T20:44:22;102067.06;;;7.76;71.92
15817;BME280;8009;50.070;8.232;2023-02-11T20:46:51;102065.22;;;7.78;71.63
15817;BME280;8009;50.070;8.232;2023-02-11T20:49:22;102064.53;;;7.72;71.82
15817;BME280;8009;50.070;8.232;2023-02-11T20:51:53;102063.66;;;7.71;71.81
15817;BME280;8009;50.070;8.232;2023-02-11T20:54:23;102064.19;;;7.82;71.71
15817;BME280;8009;50.070;8.232;2023-02-11T20:56:55;102061.63;;;7.78;71.94
15817;BME280;8009;50.070;8.232;2023-02-11T20:59:24;102055.34;;;7.79;71.83
15817;BME280;8009;50.070;8.232;2023-02-11T21:01:54;102059.69;;;7.83;71.67
15817;BME280;8009;50.070;8.232;2023-02-11T21:04:25;102050.91;;;7.76;71.73
15817;BME280;8009;50.070;8.232;2023-02-11T21:06:55;102060.72;;;7.79;71.71
15817;BME280;8009;50.070;8.232;2023-02-11T21:09:26;102055.34;;;7.79;71.84
15817;BME280;8009;50.070;8.232;2023-02-11T21:11:57;102053.69;;;7.73;71.64
15817;BME280;8009;50.070;8.232;2023-02-11T21:14:26;102060.75;;;7.77;71.73
15817;BME280;8009;50.070;8.232;2023-02-11T21:16:55;102053.69;;;7.75;71.67
15817;BME280;8009;50.070;8.232;2023-02-11T21:19:23;102047.44;;;7.73;71.88
15817;BME280;8009;50.070;8.232;2023-02-11T21:21:54;102048.63;;;7.64;72.20
15817;BME280;8009;50.070;8.232;2023-02-11T21:24:24;102058.50;;;7.64;72.33
15817;BME280;8009;50.070;8.232;2023-02-11T21:26:57;102053.22;;;7.61;72.26
15817;BME280;8009;50.070;8.232;2023-02-11T21:29:27;102048.81;;;7.58;72.32
15817;BME280;8009;50.070;8.232;2023-02-11T21:31:55;102054.50;;;7.47;73.00
15817;BME280;8009;50.070;8.232;2023-02-11T21:34:24;102041.19;;;7.44;72.78
15817;BME280;8009;50.070;8.232;2023-02-11T21:36:52;102044.34;;;7.27;73.50
15817;BME280;8009;50.070;8.232;2023-02-11T21:39:45;102048.13;;;7.20;73.51
15817;BME280;8009;50.070;8.232;2023-02-11T21:42:18;102055.94;;;7.29;73.40
15817;BME280;8009;50.070;8.232;2023-02-11T21:44:48;102061.78;;;7.13;74.21
15817;BME280;8009;50.070;8.232;2023-02-11T21:47:17;102076.22;;;7.08;74.28
15817;BME280;8009;50.070;8.232;2023-02-11T21:49:45;102069.03;;;7.11;74.26
15817;BME280;8009;50.070;8.232;2023-02-11T21:52:13;102074.09;;;7.21;73.64
15817;BME280;8009;50.070;8.232;2023-02-11T21:54:42;102082.25;;;7.18;73.87
15817;BME280;8009;50.070;8.232;2023-02-11T21:57:10;102095.97;;;7.07;74.32
15817;BME280;8009;50.070;8.232;2023-02-11T21:59:42;102095.75;;;7.15;74.03
15817;BME280;8009;50.070;8.232;2023-02-11T22:02:11;102089.88;;;7.01;74.92
15817;BME280;8009;50.070;8.232;2023-02-11T22:04:39;102086.66;;;6.88;75.39
15817;BME280;8009;50.070;8.232;2023-02-11T22:07:08;102095.53;;;6.92;75.33
15817;BME280;8009;50.070;8.232;2023-02-11T22:09:37;102089.50;;;7.15;74.97
15817;BME280;8009;50.070;8.232;2023-02-11T22:12:06;102086.53;;;7.25;74.62
15817;BME280;8009;50.070;8.232;2023-02-11T22:14:35;102096.50;;;7.20;74.36
15817;BME280;8009;50.070;8.232;2023-02-11T22:17:07;102092.63;;;7.30;74.36
15817;BME280;8009;50.070;8.232;2023-02-11T22:19:35;102097.69;;;7.41;73.77
15817;BME280;8009;50.070;8.232;2023-02-11T22:22:04;102094.00;;;7.45;74.01
15817;BME280;8009;50.070;8.232;2023-02-11T22:24:33;102093.56;;;7.59;73.46
15817;BME280;8009;50.070;8.232;2023-02-11T22:27:02;102094.72;;;7.52;73.55
15817;BME280;8009;50.070;8.232;2023-02-11T22:29:31;102093.91;;;7.48;73.94
15817;BME280;8009;50.070;8.232;2023-02-11T22:31:59;102089.13;;;7.58;73.67
15817;BME280;8009;50.070;8.232;2023-02-11T22:34:30;102087.53;;;7.52;73.81